Time,TemperatureF,DewpointF,PressureIn,WindDirection,WindDirectionDegrees,WindSpeedMPH,WindSpeedGustMPH,Humidity,HourlyPrecipIn,Conditions,Clouds,dailyrainin,SoftwareType,DateUTC
2013-05-18 00:00:00,66.2,-11.2,30.50,NNE,22,3.0,8.0,4,0.00,,,0.00,meteohub,2013-05-18 06:00:00,
2013-05-18 00:05:00,66.6,-10.8,30.50,WNW,292,8.0,8.0,4,0.00,,,0.00,meteohub,2013-05-18 06:05:00,
2013-05-18 00:10:00,66.7,-10.7,30.50,WSW,248,4.0,8.0,4,0.00,,,0.00,meteohub,2013-05-18 06:10:00,
2013-05-18 00:15:00,67.5,-10.3,30.50,NNW,338,13.0,13.0,4,0.00,,,0.00,meteohub,2013-05-18 06:15:00,
2013-05-18 00:20:00,67.8,-9.9,30.50,WNW,292,2.0,13.0,4,0.00,,,0.00,meteohub,2013-05-18 06:20:00,
2013-05-18 00:25:00,67.8,-9.9,30.50,WNW,292,4.0,13.0,4,0.00,,,0.00,meteohub,2013-05-18 06:25:00,
2013-05-18 00:30:00,67.5,-10.3,30.50,NNW,338,4.0,11.0,4,0.00,,,0.00,meteohub,2013-05-18 06:30:00,
2013-05-18 00:35:00,67.3,-10.3,30.50,NNE,22,4.0,8.0,4,0.00,,,0.00,meteohub,2013-05-18 06:35:00,
2013-05-18 00:40:00,66.9,-10.7,30.50,NNW,338,3.0,6.0,4,0.00,,,0.00,meteohub,2013-05-18 06:40:00,
2013-05-18 00:45:00,66.6,-10.8,30.50,WNW,292,3.0,8.0,4,0.00,,,0.00,meteohub,2013-05-18 06:45:00,
2013-05-18 00:50:00,65.7,-11.6,30.50,NNW,338,3.0,8.0,4,0.00,,,0.00,meteohub,2013-05-18 06:50:00,
2013-05-18 00:56:00,64.8,-12.1,30.50,NNW,338,3.0,8.0,4,0.00,,,0.00,meteohub,2013-05-18 06:56:00,
2013-05-18 01:01:00,64.2,-8.0,30.50,NNW,338,4.0,5.0,5,0.00,,,0.00,meteohub,2013-05-18 07:01:00,
2013-05-18 01:06:00,64.8,-12.1,30.50,NNW,338,5.0,5.0,4,0.00,,,0.00,meteohub,2013-05-18 07:06:00,
2013-05-18 01:11:00,64.2,-8.0,30.50,NNE,22,4.0,6.0,5,0.00,,,0.00,meteohub,2013-05-18 07:11:00,
2013-05-18 01:16:00,64.0,-8.1,30.50,WNW,292,1.0,6.0,5,0.00,,,0.00,meteohub,2013-05-18 07:16:00,
2013-05-18 01:21:00,62.8,-9.0,30.50,NNE,22,3.0,6.0,5,0.00,,,0.00,meteohub,2013-05-18 07:21:00,
2013-05-18 01:26:00,61.9,-9.6,30.50,SSW,202,2.0,4.0,5,0.00,,,0.00,meteohub,2013-05-18 07:26:00,
2013-05-18 01:31:00,61.0,-10.3,30.50,East,90,3.0,4.0,5,0.00,,,0.00,meteohub,2013-05-18 07:31:00,
2013-05-18 01:36:00,62.6,-9.2,30.50,NNW,338,3.0,6.0,5,0.00,,,0.00,meteohub,2013-05-18 07:36:00,
2013-05-18 01:41:00,63.0,-8.9,30.50,WNW,292,5.0,8.0,5,0.00,,,0.00,meteohub,2013-05-18 07:41:00,
2013-05-18 01:46:00,63.7,-8.3,30.50,ESE,112,0.0,8.0,5,0.00,,,0.00,meteohub,2013-05-18 07:46:00,
2013-05-18 01:51:00,63.0,-8.9,30.50,ESE,112,1.0,8.0,5,0.00,,,0.00,meteohub,2013-05-18 07:51:00,
2013-05-18 01:56:00,63.9,-8.3,30.50,NE,45,2.0,8.0,5,0.00,,,0.00,meteohub,2013-05-18 07:56:00,
2013-05-18 02:01:00,63.9,-8.3,30.50,WNW,292,4.0,8.0,5,0.00,,,0.00,meteohub,2013-05-18 08:01:00,
2013-05-18 02:06:00,63.5,-8.5,30.50,NNW,338,4.0,8.0,5,0.00,,,0.00,meteohub,2013-05-18 08:06:00,
2013-05-18 02:12:00,64.4,-12.3,30.50,WNW,292,2.0,7.0,4,0.00,,,0.00,meteohub,2013-05-18 08:12:00,
2013-05-18 02:18:00,64.2,-8.0,30.50,WNW,292,2.0,8.0,5,0.00,,,0.00,meteohub,2013-05-18 08:18:00,
2013-05-18 02:23:00,63.7,-8.3,30.50,WSW,248,2.0,8.0,5,0.00,,,0.00,meteohub,2013-05-18 08:23:00,
2013-05-18 02:28:00,63.5,-8.5,30.50,WSW,248,0.0,4.0,5,0.00,,,0.00,meteohub,2013-05-18 08:28:00,
2013-05-18 02:33:00,63.0,-8.9,30.50,NNW,338,2.0,4.0,5,0.00,,,0.00,meteohub,2013-05-18 08:33:00,
2013-05-18 02:38:00,62.8,-9.0,30.50,NE,45,1.0,4.0,5,0.00,,,0.00,meteohub,2013-05-18 08:38:00,
2013-05-18 02:43:00,61.3,-10.1,30.50,NNE,22,0.0,4.0,5,0.00,,,0.00,meteohub,2013-05-18 08:43:00,
2013-05-18 02:48:00,61.0,-10.3,30.50,ENE,68,0.0,4.0,5,0.00,,,0.00,meteohub,2013-05-18 08:48:00,
2013-05-18 02:53:00,60.4,-7.1,30.50,ESE,112,2.0,2.0,6,0.00,,,0.00,meteohub,2013-05-18 08:53:00,
2013-05-18 02:58:00,60.1,-7.2,30.50,East,90,2.0,2.0,6,0.00,,,0.00,meteohub,2013-05-18 08:58:00,
2013-05-18 03:03:00,60.1,-7.2,30.53,East,90,1.0,2.0,6,0.00,,,0.00,meteohub,2013-05-18 09:03:00,
2013-05-18 03:08:00,58.8,-8.1,30.53,East,90,1.0,3.0,6,0.00,,,0.00,meteohub,2013-05-18 09:08:00,
2013-05-18 03:13:00,58.1,-8.7,30.53,NNE,22,3.0,3.0,6,0.00,,,0.00,meteohub,2013-05-18 09:13:00,
2013-05-18 03:18:00,58.5,-8.5,30.50,NNW,338,3.0,3.0,6,0.00,,,0.00,meteohub,2013-05-18 09:18:00,
2013-05-18 03:23:00,59.2,-8.0,30.50,NNW,338,2.0,4.0,6,0.00,,,0.00,meteohub,2013-05-18 09:23:00,
2013-05-18 03:28:00,59.0,-8.0,30.50,NNE,22,2.0,4.0,6,0.00,,,0.00,meteohub,2013-05-18 09:28:00,
2013-05-18 03:34:00,60.1,-7.2,30.53,NNE,22,2.0,4.0,6,0.00,,,0.00,meteohub,2013-05-18 09:34:00,
2013-05-18 03:39:00,60.4,-7.1,30.53,NNW,338,0.0,4.0,6,0.00,,,0.00,meteohub,2013-05-18 09:39:00,
2013-05-18 03:44:00,59.7,-7.6,30.53,ESE,112,3.0,4.0,6,0.00,,,0.00,meteohub,2013-05-18 09:44:00,
2013-05-18 03:49:00,59.0,0.3,30.53,NNW,338,7.0,7.0,9,0.00,,,0.00,meteohub,2013-05-18 09:49:00,
2013-05-18 03:54:00,58.1,26.1,30.53,NNW,338,6.0,6.0,29,0.00,,,0.00,meteohub,2013-05-18 09:54:00,
2013-05-18 03:59:00,57.4,30.0,30.53,NNW,338,6.0,10.0,35,0.00,,,0.00,meteohub,2013-05-18 09:59:00,
2013-05-18 04:04:00,56.3,30.4,30.53,NNE,22,3.0,10.0,37,0.00,,,0.00,meteohub,2013-05-18 10:04:00,
2013-05-18 04:09:00,55.8,29.3,30.53,NNE,22,3.0,10.0,36,0.00,,,0.00,meteohub,2013-05-18 10:09:00,
2013-05-18 04:14:00,56.1,30.2,30.53,NNW,338,4.0,9.0,37,0.00,,,0.00,meteohub,2013-05-18 10:14:00,
2013-05-18 04:19:00,55.2,30.0,30.50,North,0,5.0,6.0,38,0.00,,,0.00,meteohub,2013-05-18 10:19:00,
2013-05-18 04:24:00,55.0,29.3,30.50,WNW,292,5.0,7.0,37,0.00,,,0.00,meteohub,2013-05-18 10:24:00,
2013-05-18 04:29:00,55.6,29.1,30.50,NNW,338,4.0,7.0,36,0.00,,,0.00,meteohub,2013-05-18 10:29:00,
2013-05-18 04:34:00,55.0,29.3,30.50,NNE,22,6.0,7.0,37,0.00,,,0.00,meteohub,2013-05-18 10:34:00,
2013-05-18 04:39:00,55.2,29.5,30.50,NNE,22,4.0,7.0,37,0.00,,,0.00,meteohub,2013-05-18 10:39:00,
2013-05-18 04:44:00,55.2,29.5,30.50,NNE,22,4.0,7.0,37,0.00,,,0.00,meteohub,2013-05-18 10:44:00,
2013-05-18 04:49:00,55.4,28.9,30.56,NNW,338,4.0,7.0,36,0.00,,,0.00,meteohub,2013-05-18 10:49:00,
2013-05-18 04:54:00,54.5,28.2,30.56,NNW,338,3.0,6.0,36,0.00,,,0.00,meteohub,2013-05-18 10:54:00,
2013-05-18 05:00:00,53.2,27.0,30.56,NNE,22,2.0,6.0,36,0.00,,,0.00,meteohub,2013-05-18 11:00:00,
2013-05-18 05:05:00,54.0,27.0,30.53,NNE,22,2.0,6.0,35,0.00,,,0.00,meteohub,2013-05-18 11:05:00,
2013-05-18 05:10:00,55.6,27.7,30.53,ENE,68,4.0,5.0,34,0.00,,,0.00,meteohub,2013-05-18 11:10:00,
2013-05-18 05:15:00,57.6,25.5,30.53,ESE,112,3.0,3.0,29,0.00,,,0.00,meteohub,2013-05-18 11:15:00,
2013-05-18 05:20:00,58.1,27.7,30.56,WNW,292,0.0,6.0,31,0.00,,,0.00,meteohub,2013-05-18 11:20:00,
2013-05-18 05:25:00,57.6,27.1,30.56,WNW,292,1.0,6.0,31,0.00,,,0.00,meteohub,2013-05-18 11:25:00,
2013-05-18 05:30:00,56.5,27.0,30.56,ESE,112,2.0,4.0,32,0.00,,,0.00,meteohub,2013-05-18 11:30:00,
2013-05-18 05:35:00,55.8,26.4,30.53,ESE,112,3.0,4.0,32,0.00,,,0.00,meteohub,2013-05-18 11:35:00,
2013-05-18 05:40:00,55.8,26.4,30.53,WNW,292,0.0,5.0,32,0.00,,,0.00,meteohub,2013-05-18 11:40:00,
2013-05-18 05:45:00,55.2,25.9,30.53,ESE,112,1.0,5.0,32,0.00,,,0.00,meteohub,2013-05-18 11:45:00,
2013-05-18 05:50:00,55.0,25.7,30.56,WNW,292,1.0,5.0,32,0.00,,,0.00,meteohub,2013-05-18 11:50:00,
2013-05-18 05:55:00,54.3,25.9,30.56,NNE,22,3.0,3.0,33,0.00,,,0.00,meteohub,2013-05-18 11:55:00,
2013-05-18 06:00:00,54.7,25.5,30.56,WSW,248,1.0,4.0,32,0.00,,,0.00,meteohub,2013-05-18 12:00:00,
2013-05-18 06:05:00,56.5,23.9,30.50,NNW,338,6.0,6.0,28,0.00,,,0.00,meteohub,2013-05-18 12:05:00,
2013-05-18 06:10:00,58.5,24.6,30.50,NNW,338,6.0,6.0,27,0.00,,,0.00,meteohub,2013-05-18 12:10:00,
2013-05-18 06:15:00,59.2,25.3,30.50,NNW,338,3.0,6.0,27,0.00,,,0.00,meteohub,2013-05-18 12:15:00,
2013-05-18 06:20:00,59.9,25.9,30.53,NNW,338,0.0,6.0,27,0.00,,,0.00,meteohub,2013-05-18 12:20:00,
2013-05-18 06:26:00,59.4,25.5,30.53,East,90,2.0,6.0,27,0.00,,,0.00,meteohub,2013-05-18 12:26:00,
2013-05-18 06:31:00,59.2,27.9,30.53,NW,315,2.0,6.0,30,0.00,,,0.00,meteohub,2013-05-18 12:31:00,
2013-05-18 06:36:00,59.4,25.5,30.53,WNW,292,4.0,4.0,27,0.00,,,0.00,meteohub,2013-05-18 12:36:00,
2013-05-18 06:41:00,59.4,26.2,30.53,NNE,22,2.0,4.0,28,0.00,,,0.00,meteohub,2013-05-18 12:41:00,
2013-05-18 06:46:00,60.1,26.1,30.53,NNW,338,2.0,5.0,27,0.00,,,0.00,meteohub,2013-05-18 12:46:00,
2013-05-18 06:51:00,60.4,26.4,30.53,NNW,338,1.0,5.0,27,0.00,,,0.00,meteohub,2013-05-18 12:51:00,
2013-05-18 06:56:00,60.6,27.3,30.53,SSE,158,1.0,5.0,28,0.00,,,0.00,meteohub,2013-05-18 12:56:00,
2013-05-18 07:01:00,60.3,27.1,30.50,SSE,158,3.0,4.0,28,0.00,,,0.00,meteohub,2013-05-18 13:01:00,
2013-05-18 07:06:00,60.4,28.0,30.50,SSE,158,3.0,4.0,29,0.00,,,0.00,meteohub,2013-05-18 13:06:00,
2013-05-18 07:11:00,60.6,29.1,30.50,WNW,292,1.0,4.0,30,0.00,,,0.00,meteohub,2013-05-18 13:11:00,
2013-05-18 07:16:00,60.8,30.0,30.53,ESE,112,3.0,4.0,31,0.00,,,0.00,meteohub,2013-05-18 13:16:00,
2013-05-18 07:21:00,61.2,32.5,30.53,ESE,112,2.0,3.0,34,0.00,,,0.00,meteohub,2013-05-18 13:21:00,
2013-05-18 07:26:00,63.5,32.4,30.53,ESE,112,0.0,3.0,31,0.00,,,0.00,meteohub,2013-05-18 13:26:00,
2013-05-18 07:31:00,64.0,34.3,30.53,ENE,68,6.0,6.0,33,0.00,,,0.00,meteohub,2013-05-18 13:31:00,
2013-05-18 07:36:00,63.7,32.5,30.53,SSW,202,2.0,6.0,31,0.00,,,0.00,meteohub,2013-05-18 13:36:00,
2013-05-18 07:41:00,65.7,32.5,30.53,SSE,158,3.0,8.0,29,0.00,,,0.00,meteohub,2013-05-18 13:41:00,
2013-05-18 07:47:00,67.8,34.5,30.53,SSE,158,3.0,8.0,29,0.00,,,0.00,meteohub,2013-05-18 13:47:00,
2013-05-18 07:52:00,68.7,34.3,30.53,SSE,158,4.0,4.0,28,0.00,,,0.00,meteohub,2013-05-18 13:52:00,
2013-05-18 07:57:00,68.2,32.9,30.53,SSE,158,5.0,5.0,27,0.00,,,0.00,meteohub,2013-05-18 13:57:00,
2013-05-18 08:02:00,68.4,34.0,30.53,SSE,158,5.0,6.0,28,0.00,,,0.00,meteohub,2013-05-18 14:02:00,
2013-05-18 08:07:00,67.6,34.3,30.53,SSE,158,6.0,6.0,29,0.00,,,0.00,meteohub,2013-05-18 14:07:00,
2013-05-18 08:12:00,67.3,36.5,30.53,SSE,158,6.0,7.0,32,0.00,,,0.00,meteohub,2013-05-18 14:12:00,
2013-05-18 08:17:00,67.1,35.4,30.56,SSE,158,5.0,9.0,31,0.00,,,0.00,meteohub,2013-05-18 14:17:00,
2013-05-18 08:22:00,67.3,37.2,30.56,SSE,158,5.0,9.0,33,0.00,,,0.00,meteohub,2013-05-18 14:22:00,
2013-05-18 08:27:00,65.8,36.0,30.56,SSW,202,2.0,8.0,33,0.00,,,0.00,meteohub,2013-05-18 14:27:00,
2013-05-18 08:32:00,65.7,35.8,30.53,SSW,202,2.0,6.0,33,0.00,,,0.00,meteohub,2013-05-18 14:32:00,
2013-05-18 08:37:00,65.7,35.8,30.53,SSW,202,1.0,6.0,33,0.00,,,0.00,meteohub,2013-05-18 14:37:00,
2013-05-18 08:42:00,65.1,35.4,30.53,SSE,158,4.0,4.0,33,0.00,,,0.00,meteohub,2013-05-18 14:42:00,
2013-05-18 08:47:00,64.6,34.9,30.56,SSW,202,1.0,5.0,33,0.00,,,0.00,meteohub,2013-05-18 14:47:00,
2013-05-18 08:52:00,64.8,35.1,30.56,SSW,202,2.0,5.0,33,0.00,,,0.00,meteohub,2013-05-18 14:52:00,
2013-05-18 08:57:00,65.8,36.0,30.56,SSE,158,3.0,5.0,33,0.00,,,0.00,meteohub,2013-05-18 14:57:00,
2013-05-18 09:02:00,66.4,36.5,30.56,SSE,158,2.0,3.0,33,0.00,,,0.00,meteohub,2013-05-18 15:02:00,
2013-05-18 09:07:00,66.7,36.7,30.56,ESE,112,0.0,3.0,33,0.00,,,0.00,meteohub,2013-05-18 15:07:00,
2013-05-18 09:12:00,68.2,37.2,30.56,ESE,112,2.0,3.0,32,0.00,,,0.00,meteohub,2013-05-18 15:12:00,
2013-05-18 09:17:00,67.5,37.4,30.56,SSE,158,5.0,5.0,33,0.00,,,0.00,meteohub,2013-05-18 15:17:00,
2013-05-18 09:22:00,66.7,36.7,30.56,SSE,158,4.0,6.0,33,0.00,,,0.00,meteohub,2013-05-18 15:22:00,
2013-05-18 09:27:00,66.4,37.2,30.56,SSE,158,3.0,6.0,34,0.00,,,0.00,meteohub,2013-05-18 15:27:00,
2013-05-18 09:32:00,66.9,37.8,30.59,SSE,158,4.0,6.0,34,0.00,,,0.00,meteohub,2013-05-18 15:32:00,
2013-05-18 09:37:00,66.7,36.7,30.59,SSE,158,6.0,6.0,33,0.00,,,0.00,meteohub,2013-05-18 15:37:00,
2013-05-18 09:42:00,67.8,38.5,30.59,SSW,202,9.0,9.0,34,0.00,,,0.00,meteohub,2013-05-18 15:42:00,
2013-05-18 09:47:00,68.2,37.9,30.56,SSE,158,6.0,10.0,33,0.00,,,0.00,meteohub,2013-05-18 15:47:00,
2013-05-18 09:52:00,68.2,38.8,30.56,SSE,158,6.0,10.0,34,0.00,,,0.00,meteohub,2013-05-18 15:52:00,
2013-05-18 09:57:00,68.4,39.0,30.56,SSE,158,5.0,10.0,34,0.00,,,0.00,meteohub,2013-05-18 15:57:00,
2013-05-18 10:02:00,67.8,37.8,30.56,South,180,7.0,10.0,33,0.00,,,0.00,meteohub,2013-05-18 16:02:00,
2013-05-18 10:07:00,70.0,40.3,30.56,SSW,202,8.0,9.0,34,0.00,,,0.00,meteohub,2013-05-18 16:07:00,
2013-05-18 10:12:00,70.9,39.6,30.56,SSW,202,4.0,8.0,32,0.00,,,0.00,meteohub,2013-05-18 16:12:00,
2013-05-18 10:17:00,71.4,40.8,30.56,SSE,158,6.0,9.0,33,0.00,,,0.00,meteohub,2013-05-18 16:17:00,
2013-05-18 10:22:00,72.1,40.6,30.56,South,180,7.0,9.0,32,0.00,,,0.00,meteohub,2013-05-18 16:22:00,
2013-05-18 10:27:00,73.0,40.6,30.56,SSE,158,6.0,9.0,31,0.00,,,0.00,meteohub,2013-05-18 16:27:00,
2013-05-18 10:32:00,72.0,39.7,30.56,SSW,202,5.0,8.0,31,0.00,,,0.00,meteohub,2013-05-18 16:32:00,
2013-05-18 10:37:00,71.1,39.7,30.56,SSE,158,6.0,10.0,32,0.00,,,0.00,meteohub,2013-05-18 16:37:00,
2013-05-18 10:42:00,71.4,40.8,30.56,SSW,202,4.0,10.0,33,0.00,,,0.00,meteohub,2013-05-18 16:42:00,
2013-05-18 10:47:00,70.9,39.6,30.56,SSW,202,5.0,10.0,32,0.00,,,0.00,meteohub,2013-05-18 16:47:00,
2013-05-18 10:52:00,72.1,40.6,30.56,South,180,7.0,10.0,32,0.00,,,0.00,meteohub,2013-05-18 16:52:00,
2013-05-18 10:57:00,71.6,40.3,30.56,WSW,248,4.0,10.0,32,0.00,,,0.00,meteohub,2013-05-18 16:57:00,
2013-05-18 11:02:00,71.6,40.3,30.56,SSW,202,6.0,11.0,32,0.00,,,0.00,meteohub,2013-05-18 17:02:00,
2013-05-18 11:07:00,71.6,39.4,30.56,SSE,158,10.0,11.0,31,0.00,,,0.00,meteohub,2013-05-18 17:07:00,
2013-05-18 11:12:00,72.0,38.8,30.56,SSW,202,5.0,11.0,30,0.00,,,0.00,meteohub,2013-05-18 17:12:00,
2013-05-18 11:17:00,72.7,41.2,30.53,SSW,202,6.0,10.0,32,0.00,,,0.00,meteohub,2013-05-18 17:17:00,
2013-05-18 11:22:00,73.0,41.5,30.53,SSE,158,8.0,10.0,32,0.00,,,0.00,meteohub,2013-05-18 17:22:00,
2013-05-18 11:48:00,71.2,39.9,30.56,SSE,158,8.0,8.0,32,0.00,,,0.00,meteohub,2013-05-18 17:48:00,
2013-05-18 12:13:00,72.7,39.6,30.50,SSE,158,8.0,8.0,30,0.00,,,0.00,meteohub,2013-05-18 18:13:00,
2013-05-18 12:19:00,72.9,37.9,30.50,SSE,158,4.0,8.0,28,0.00,,,0.00,meteohub,2013-05-18 18:19:00,
2013-05-18 12:24:00,73.0,39.0,30.53,SSE,158,6.0,8.0,29,0.00,,,0.00,meteohub,2013-05-18 18:24:00,
2013-05-18 12:29:00,72.5,37.6,30.53,SSW,202,9.0,9.0,28,0.00,,,0.00,meteohub,2013-05-18 18:29:00,
2013-05-18 12:34:00,73.2,39.0,30.53,SSW,202,3.0,11.0,29,0.00,,,0.00,meteohub,2013-05-18 18:34:00,
2013-05-18 12:39:00,73.2,34.3,30.53,WSW,248,5.0,11.0,24,0.00,,,0.00,meteohub,2013-05-18 18:39:00,
2013-05-18 12:44:00,73.9,33.8,30.53,SSE,158,4.0,11.0,23,0.00,,,0.00,meteohub,2013-05-18 18:44:00,
2013-05-18 12:49:00,74.1,34.0,30.53,WNW,292,0.0,6.0,23,0.00,,,0.00,meteohub,2013-05-18 18:49:00,
2013-05-18 12:54:00,75.4,34.0,30.53,ESE,112,0.0,6.0,22,0.00,,,0.00,meteohub,2013-05-18 18:54:00,
2013-05-18 12:59:00,75.7,34.2,30.53,SSE,158,6.0,6.0,22,0.00,,,0.00,meteohub,2013-05-18 18:59:00,
2013-05-18 13:05:00,75.0,34.7,30.53,SSE,158,3.0,5.0,23,0.00,,,0.00,meteohub,2013-05-18 19:05:00,
2013-05-18 13:10:00,74.8,34.5,30.53,SSE,158,4.0,7.0,23,0.00,,,0.00,meteohub,2013-05-18 19:10:00,
2013-05-18 13:15:00,74.1,34.0,30.53,SSW,202,5.0,7.0,23,0.00,,,0.00,meteohub,2013-05-18 19:15:00,
2013-05-18 13:20:00,73.6,34.5,30.53,SSE,158,8.0,8.0,24,0.00,,,0.00,meteohub,2013-05-18 19:20:00,
2013-05-18 13:25:00,73.8,35.8,30.53,SSE,158,6.0,8.0,25,0.00,,,0.00,meteohub,2013-05-18 19:25:00,
2013-05-18 13:30:00,73.4,32.4,30.53,SSE,158,6.0,8.0,22,0.00,,,0.00,meteohub,2013-05-18 19:30:00,
2013-05-18 13:35:00,73.2,32.2,30.53,SSE,158,4.0,9.0,22,0.00,,,0.00,meteohub,2013-05-18 19:35:00,
2013-05-18 13:40:00,73.8,32.5,30.53,SSW,202,3.0,9.0,22,0.00,,,0.00,meteohub,2013-05-18 19:40:00,
2013-05-18 13:45:00,74.5,32.0,30.53,SSE,158,0.0,9.0,21,0.00,,,0.00,meteohub,2013-05-18 19:45:00,
2013-05-18 13:50:00,75.2,31.5,30.53,SSE,158,5.0,5.0,20,0.00,,,0.00,meteohub,2013-05-18 19:50:00,
2013-05-18 13:55:00,73.9,27.9,30.53,SSE,158,2.0,6.0,18,0.00,,,0.00,meteohub,2013-05-18 19:55:00,
2013-05-18 14:00:00,73.8,27.7,30.53,SSE,158,4.0,9.0,18,0.00,,,0.00,meteohub,2013-05-18 20:00:00,
2013-05-18 14:05:00,73.0,32.0,30.50,SSW,202,6.0,9.0,22,0.00,,,0.00,meteohub,2013-05-18 20:05:00,
2013-05-18 14:10:00,73.0,34.2,30.50,SSW,202,4.0,8.0,24,0.00,,,0.00,meteohub,2013-05-18 20:10:00,
2013-05-18 14:15:00,72.5,33.6,30.50,SSW,202,4.0,8.0,24,0.00,,,0.00,meteohub,2013-05-18 20:15:00,
2013-05-18 14:20:00,72.3,32.5,30.50,SSE,158,11.0,11.0,23,0.00,,,0.00,meteohub,2013-05-18 20:20:00,
2013-05-18 14:26:00,71.8,33.1,30.50,SSE,158,9.0,11.0,24,0.00,,,0.00,meteohub,2013-05-18 20:26:00,
2013-05-18 14:31:00,71.6,31.8,30.50,SSW,202,4.0,11.0,23,0.00,,,0.00,meteohub,2013-05-18 20:31:00,
2013-05-18 14:36:00,72.1,35.4,30.50,SSE,158,5.0,11.0,26,0.00,,,0.00,meteohub,2013-05-18 20:36:00,
2013-05-18 14:41:00,72.5,33.6,30.50,SSW,202,3.0,9.0,24,0.00,,,0.00,meteohub,2013-05-18 20:41:00,
2013-05-18 14:46:00,72.9,35.1,30.50,SSW,202,7.0,7.0,25,0.00,,,0.00,meteohub,2013-05-18 20:46:00,
2013-05-18 14:51:00,74.1,34.0,30.50,SSW,202,6.0,8.0,23,0.00,,,0.00,meteohub,2013-05-18 20:51:00,
2013-05-18 14:56:00,74.7,34.5,30.50,SSW,202,3.0,8.0,23,0.00,,,0.00,meteohub,2013-05-18 20:56:00,
2013-05-18 15:01:00,74.3,31.8,30.50,SSW,202,4.0,8.0,21,0.00,,,0.00,meteohub,2013-05-18 21:01:00,
2013-05-18 15:06:00,74.3,31.8,30.50,WSW,248,5.0,6.0,21,0.00,,,0.00,meteohub,2013-05-18 21:06:00,
2013-05-18 15:11:00,78.3,35.2,30.50,ENE,68,2.0,6.0,21,0.00,,,0.00,meteohub,2013-05-18 21:11:00,
2013-05-18 15:16:00,77.4,33.3,30.50,SSW,202,5.0,6.0,20,0.00,,,0.00,meteohub,2013-05-18 21:16:00,
2013-05-18 15:21:00,75.2,32.7,30.50,SSE,158,6.0,6.0,21,0.00,,,0.00,meteohub,2013-05-18 21:21:00,
2013-05-18 15:26:00,73.8,32.5,30.50,SSE,158,6.0,7.0,22,0.00,,,0.00,meteohub,2013-05-18 21:26:00,
2013-05-18 15:31:00,74.3,33.1,30.50,South,180,3.0,7.0,22,0.00,,,0.00,meteohub,2013-05-18 21:31:00,
2013-05-18 15:36:00,73.2,32.2,30.50,SSE,158,1.0,7.0,22,0.00,,,0.00,meteohub,2013-05-18 21:36:00,
2013-05-18 15:41:00,75.6,34.2,30.50,NNE,22,0.0,7.0,22,0.00,,,0.00,meteohub,2013-05-18 21:41:00,
2013-05-18 15:46:00,75.6,32.9,30.47,SSE,158,3.0,6.0,21,0.00,,,0.00,meteohub,2013-05-18 21:46:00,
2013-05-18 15:52:00,74.3,31.8,30.47,South,180,3.0,6.0,21,0.00,,,0.00,meteohub,2013-05-18 21:52:00,
2013-05-18 15:57:00,73.8,32.5,30.47,SSW,202,2.0,6.0,22,0.00,,,0.00,meteohub,2013-05-18 21:57:00,
2013-05-18 16:02:00,73.8,32.5,30.47,SSE,158,4.0,6.0,22,0.00,,,0.00,meteohub,2013-05-18 22:02:00,
2013-05-18 16:07:00,73.8,32.5,30.47,ESE,112,1.0,4.0,22,0.00,,,0.00,meteohub,2013-05-18 22:07:00,
2013-05-18 16:12:00,72.9,31.8,30.47,WSW,248,3.0,4.0,22,0.00,,,0.00,meteohub,2013-05-18 22:12:00,
2013-05-18 16:17:00,72.3,31.5,30.47,WSW,248,3.0,4.0,22,0.00,,,0.00,meteohub,2013-05-18 22:17:00,
2013-05-18 16:22:00,71.6,31.8,30.47,WSW,248,2.0,4.0,23,0.00,,,0.00,meteohub,2013-05-18 22:22:00,
2013-05-18 16:27:00,69.6,33.3,30.47,NNW,338,9.0,9.0,26,0.00,,,0.00,meteohub,2013-05-18 22:27:00,
2013-05-18 16:32:00,68.5,33.3,30.47,NNW,338,5.0,13.0,27,0.00,,,0.00,meteohub,2013-05-18 22:32:00,
2013-05-18 16:37:00,67.3,33.1,30.47,NNW,338,10.0,13.0,28,0.00,,,0.00,meteohub,2013-05-18 22:37:00,
2013-05-18 16:42:00,66.7,33.4,30.47,NNW,338,7.0,14.0,29,0.00,,,0.00,meteohub,2013-05-18 22:42:00,
2013-05-18 16:47:00,65.8,33.6,30.44,NNE,22,11.0,14.0,30,0.00,,,0.00,meteohub,2013-05-18 22:47:00,
2013-05-18 16:52:00,65.3,34.7,30.44,NNW,338,6.0,14.0,32,0.00,,,0.00,meteohub,2013-05-18 22:52:00,
2013-05-18 16:57:00,64.9,33.6,30.44,WNW,292,8.0,15.0,31,0.00,,,0.00,meteohub,2013-05-18 22:57:00,
2013-05-18 17:02:00,64.4,34.0,30.47,WNW,292,4.0,15.0,32,0.00,,,0.00,meteohub,2013-05-18 23:02:00,
2013-05-18 17:07:00,63.9,34.2,30.47,NNW,338,13.0,17.0,33,0.00,,,0.00,meteohub,2013-05-18 23:07:00,
2013-05-18 17:12:00,63.5,34.0,30.47,NW,315,20.0,20.0,33,0.00,,,0.00,meteohub,2013-05-18 23:12:00,
2013-05-18 17:17:00,63.0,34.2,30.50,WSW,248,8.0,20.0,34,0.00,,,0.00,meteohub,2013-05-18 23:17:00,
2013-05-18 17:22:00,62.2,34.3,30.50,WSW,248,3.0,20.0,35,0.00,,,0.00,meteohub,2013-05-18 23:22:00,
2013-05-18 17:27:00,61.3,34.2,30.50,WSW,248,8.0,20.0,36,0.00,,,0.00,meteohub,2013-05-18 23:27:00,
2013-05-18 17:32:00,61.0,34.5,30.50,NNW,338,12.0,15.0,37,0.00,,,0.00,meteohub,2013-05-18 23:32:00,
2013-05-18 17:37:00,60.3,35.2,30.50,NW,315,10.0,19.0,39,0.00,,,0.00,meteohub,2013-05-18 23:37:00,
2013-05-18 17:42:00,59.4,37.4,30.50,NNW,338,10.0,19.0,44,0.00,,,0.00,meteohub,2013-05-18 23:42:00,
2013-05-18 17:47:00,59.4,38.1,30.50,NNW,338,12.0,19.0,45,0.00,,,0.00,meteohub,2013-05-18 23:47:00,
2013-05-18 17:52:00,60.1,39.7,30.50,NNW,338,11.0,18.0,47,0.00,,,0.00,meteohub,2013-05-18 23:52:00,
2013-05-18 17:57:00,60.4,39.6,30.50,NNW,338,10.0,17.0,46,0.00,,,0.00,meteohub,2013-05-18 23:57:00,
2013-05-18 18:02:00,60.6,39.7,-100.00,NNW,338,10.0,19.0,46,0.00,,,0.00,meteohub,2013-05-19 00:02:00,
2013-05-18 18:07:00,60.4,39.6,30.50,NNW,338,15.0,19.0,46,0.00,,,0.00,meteohub,2013-05-19 00:07:00,
2013-05-18 18:12:00,60.6,38.7,30.50,NNW,338,14.0,19.0,44,0.00,,,0.00,meteohub,2013-05-19 00:12:00,
2013-05-18 18:17:00,60.1,38.1,30.50,NNW,338,10.0,17.0,44,0.00,,,0.00,meteohub,2013-05-19 00:17:00,
2013-05-18 18:22:00,59.5,37.6,30.50,NNW,338,8.0,19.0,44,0.00,,,0.00,meteohub,2013-05-19 00:22:00,
2013-05-18 18:27:00,61.7,39.0,30.50,WNW,292,6.0,19.0,43,0.00,,,0.00,meteohub,2013-05-19 00:27:00,
2013-05-18 18:33:00,62.6,38.7,30.47,NNW,338,11.0,20.0,41,0.00,,,0.00,meteohub,2013-05-19 00:33:00,
2013-05-18 18:38:00,63.9,39.7,30.47,NNW,338,9.0,20.0,41,0.00,,,0.00,meteohub,2013-05-19 00:38:00,
2013-05-18 18:43:00,65.3,39.7,30.47,NNW,338,10.0,19.0,39,0.00,,,0.00,meteohub,2013-05-19 00:43:00,
2013-05-18 18:48:00,65.7,38.7,30.47,NNE,22,2.0,17.0,37,0.00,,,0.00,meteohub,2013-05-19 00:48:00,
2013-05-18 18:53:00,66.0,38.3,30.47,NNW,338,6.0,16.0,36,0.00,,,0.00,meteohub,2013-05-19 00:53:00,
2013-05-18 18:58:00,66.4,38.7,30.47,NNW,338,11.0,16.0,36,0.00,,,0.00,meteohub,2013-05-19 00:58:00,
2013-05-18 19:03:00,66.0,37.6,30.47,NNW,338,10.0,13.0,35,0.00,,,0.00,meteohub,2013-05-19 01:03:00,
2013-05-18 19:08:00,65.3,37.0,30.47,NNW,338,13.0,17.0,35,0.00,,,0.00,meteohub,2013-05-19 01:08:00,
2013-05-18 19:13:00,64.0,36.5,30.47,NNW,338,5.0,17.0,36,0.00,,,0.00,meteohub,2013-05-19 01:13:00,
2013-05-18 19:18:00,62.6,35.2,30.47,NNW,338,12.0,16.0,36,0.00,,,0.00,meteohub,2013-05-19 01:18:00,
2013-05-18 19:24:00,62.2,35.1,30.47,WSW,248,12.0,15.0,36,0.00,,,0.00,meteohub,2013-05-19 01:24:00,
2013-05-18 19:29:00,62.2,35.1,30.47,WNW,292,8.0,16.0,36,0.00,,,0.00,meteohub,2013-05-19 01:29:00,
2013-05-18 19:34:00,61.9,34.7,30.44,NNW,338,7.0,16.0,36,0.00,,,0.00,meteohub,2013-05-19 01:34:00,
2013-05-18 19:39:00,61.7,34.5,30.44,WNW,292,9.0,15.0,36,0.00,,,0.00,meteohub,2013-05-19 01:39:00,
2013-05-18 19:44:00,61.7,33.8,30.44,SSW,202,4.0,17.0,35,0.00,,,0.00,meteohub,2013-05-19 01:44:00,
2013-05-18 19:49:00,61.7,34.5,30.47,NNW,338,6.0,17.0,36,0.00,,,0.00,meteohub,2013-05-19 01:49:00,
2013-05-18 19:54:00,61.2,34.0,30.47,NNW,338,6.0,17.0,36,0.00,,,0.00,meteohub,2013-05-19 01:54:00,
2013-05-18 20:00:00,61.0,33.8,30.47,NNW,338,4.0,11.0,36,0.00,,,0.00,meteohub,2013-05-19 02:00:00,
2013-05-18 20:05:00,60.4,33.4,30.47,NNW,338,8.0,8.0,36,0.00,,,0.00,meteohub,2013-05-19 02:05:00,
2013-05-18 20:10:00,60.4,33.4,30.47,WSW,248,8.0,10.0,36,0.00,,,0.00,meteohub,2013-05-19 02:10:00,
2013-05-18 20:15:00,60.3,33.3,30.47,NNW,338,8.0,11.0,36,0.00,,,0.00,meteohub,2013-05-19 02:15:00,
2013-05-18 20:20:00,60.4,33.4,30.50,WNW,292,9.0,13.0,36,0.00,,,0.00,meteohub,2013-05-19 02:20:00,
2013-05-18 20:25:00,60.4,33.4,30.50,NNW,338,6.0,14.0,36,0.00,,,0.00,meteohub,2013-05-19 02:25:00,
2013-05-18 20:30:00,60.4,33.4,30.50,NNW,338,10.0,14.0,36,0.00,,,0.00,meteohub,2013-05-19 02:30:00,
2013-05-18 20:35:00,60.3,33.3,30.44,WNW,292,8.0,14.0,36,0.00,,,0.00,meteohub,2013-05-19 02:35:00,
2013-05-18 20:40:00,60.1,33.1,30.44,WNW,292,4.0,12.0,36,0.00,,,0.00,meteohub,2013-05-19 02:40:00,
2013-05-18 20:45:00,60.1,33.1,30.44,WNW,292,12.0,12.0,36,0.00,,,0.00,meteohub,2013-05-19 02:45:00,
2013-05-18 20:50:00,59.9,32.9,30.44,SSW,202,6.0,14.0,36,0.00,,,0.00,meteohub,2013-05-19 02:50:00,
2013-05-18 20:56:00,59.9,32.9,30.44,WNW,292,9.0,14.0,36,0.00,,,0.00,meteohub,2013-05-19 02:56:00,
2013-05-18 21:01:00,60.1,33.1,30.47,NNW,338,6.0,17.0,36,0.00,,,0.00,meteohub,2013-05-19 03:01:00,
2013-05-18 21:06:00,60.1,33.1,30.47,WNW,292,4.0,17.0,36,0.00,,,0.00,meteohub,2013-05-19 03:06:00,
2013-05-18 21:11:00,60.1,33.1,30.47,NNW,338,10.0,17.0,36,0.00,,,0.00,meteohub,2013-05-19 03:11:00,
2013-05-18 21:16:00,60.1,33.1,30.47,WNW,292,8.0,17.0,36,0.00,,,0.00,meteohub,2013-05-19 03:16:00,
2013-05-18 21:21:00,59.9,32.9,30.47,WNW,292,1.0,17.0,36,0.00,,,0.00,meteohub,2013-05-19 03:21:00,
2013-05-18 21:27:00,60.1,32.4,30.47,WNW,292,10.0,17.0,35,0.00,,,0.00,meteohub,2013-05-19 03:27:00,
2013-05-18 21:32:00,60.3,32.5,30.47,SE,135,4.0,10.0,35,0.00,,,0.00,meteohub,2013-05-19 03:32:00,
2013-05-18 21:37:00,60.1,32.4,30.47,SSW,202,4.0,10.0,35,0.00,,,0.00,meteohub,2013-05-19 03:37:00,
2013-05-18 21:42:00,60.1,32.4,30.47,ESE,112,5.0,10.0,35,0.00,,,0.00,meteohub,2013-05-19 03:42:00,
2013-05-18 21:47:00,59.4,32.4,30.50,SSE,158,8.0,10.0,36,0.00,,,0.00,meteohub,2013-05-19 03:47:00,
2013-05-18 21:52:00,59.4,33.1,30.50,SSE,158,6.0,10.0,37,0.00,,,0.00,meteohub,2013-05-19 03:52:00,
2013-05-18 21:57:00,58.8,33.3,30.50,ESE,112,3.0,10.0,38,0.00,,,0.00,meteohub,2013-05-19 03:57:00,
2013-05-18 22:01:00,58.5,32.9,30.50,SE,135,3.0,8.0,38,0.00,,,0.00,meteohub,2013-05-19 04:01:00,
2013-05-18 22:02:00,58.5,32.9,30.50,SSW,202,5.0,8.0,38,0.00,,,0.00,meteohub,2013-05-19 04:02:00,
2013-05-18 22:05:00,58.3,33.4,30.50,SE,135,2.0,6.0,39,0.00,,,0.00,meteohub,2013-05-19 04:05:00,
2013-05-18 22:10:00,57.9,33.1,30.50,East,90,4.0,6.0,39,0.00,,,0.00,meteohub,2013-05-19 04:10:00,
2013-05-18 22:16:00,57.6,33.4,30.53,ESE,112,3.0,6.0,40,0.00,,,0.00,meteohub,2013-05-19 04:16:00,
2013-05-18 22:21:00,57.2,33.1,30.53,SSE,158,1.0,6.0,40,0.00,,,0.00,meteohub,2013-05-19 04:21:00,
2013-05-18 22:26:00,56.7,33.8,30.53,ENE,68,3.0,6.0,42,0.00,,,0.00,meteohub,2013-05-19 04:26:00,
2013-05-18 22:31:00,56.3,33.6,30.53,ENE,68,1.0,6.0,42,0.00,,,0.00,meteohub,2013-05-19 04:31:00,
2013-05-18 22:36:00,56.1,34.0,30.53,SSW,202,3.0,6.0,43,0.00,,,0.00,meteohub,2013-05-19 04:36:00,
2013-05-18 22:41:00,55.8,34.7,30.53,SSE,158,3.0,6.0,45,0.00,,,0.00,meteohub,2013-05-19 04:41:00,
2013-05-18 22:46:00,55.0,35.2,30.53,SSW,202,3.0,6.0,47,0.00,,,0.00,meteohub,2013-05-19 04:46:00,
2013-05-18 22:51:00,54.7,34.9,30.56,SSW,202,2.0,6.0,47,0.00,,,0.00,meteohub,2013-05-19 04:51:00,
2013-05-18 22:56:00,54.3,35.1,30.56,SSW,202,2.0,4.0,48,0.00,,,0.00,meteohub,2013-05-19 04:56:00,
2013-05-18 23:01:00,54.0,34.2,30.50,SSE,158,1.0,4.0,47,0.00,,,0.00,meteohub,2013-05-19 05:01:00,
2013-05-18 23:07:00,53.2,34.2,30.50,East,90,1.0,3.0,48,0.00,,,0.00,meteohub,2013-05-19 05:07:00,
2013-05-18 23:12:00,52.9,34.3,30.50,East,90,0.0,3.0,49,0.00,,,0.00,meteohub,2013-05-19 05:12:00,
2013-05-18 23:17:00,52.3,33.3,30.56,NNE,22,0.0,3.0,48,0.00,,,0.00,meteohub,2013-05-19 05:17:00,
2013-05-18 23:22:00,51.8,33.8,30.56,East,90,1.0,2.0,50,0.00,,,0.00,meteohub,2013-05-19 05:22:00,
2013-05-18 23:29:00,51.8,34.3,30.56,ESE,112,3.0,3.0,51,0.00,,,0.00,meteohub,2013-05-19 05:29:00,
2013-05-18 23:56:00,50.7,33.3,30.53,ESE,112,0.0,2.0,51,0.00,,,0.00,meteohub,2013-05-19 05:56:00,